Search for airport 
image banner adimage banner adimage banner ad
image banner ad

CL95 - County Headquarters Bldg

Located in San Bernardino, United States

ICAO - CL95, IATA -

Data provided by Airmate  

General information

Coordinates: N34°6'11" W117°16'19"
Elevation is 1040 feet MSL.
Magnetic variation is 14° East
View others Airports in California

Operational data

Special qualification required
Current time UTC:
Current local time:
Weather at : KSBD - San Bernardino Intl ( 4 km )
METAR: KSBD 211240Z AUTO 26004KT 10SM CLR 18/13 A2997 RMK AO2 T01750125
TAF: KSBD 211140Z 2112/2212 VRB05KT P6SM SKC FM212000 24011KT P6SM SKC FM220500 25005KT P6SM FEW150
View NOTAMs / SUP AIP / TFR affecting this airport [VIEW]
Communications frequencies: [VIEW]

Runways:

Airport contact information

Address: San Bernardino United States

Satellite view of CL95